createdAt,value
2018-11-28T00:02:51.962Z,11.33
2018-11-28T00:07:28.341Z,11.27
2018-11-28T00:12:04.730Z,10.43
2018-11-28T00:16:41.092Z,9.63
2018-11-28T00:21:17.466Z,9.47
2018-11-28T00:25:58.718Z,10.47
2018-11-28T00:30:31.114Z,11.37
2018-11-28T00:35:09.061Z,10.67
2018-11-28T00:39:45.445Z,11.03
2018-11-28T00:44:21.804Z,10.93
2018-11-28T00:48:58.206Z,10.80
2018-11-28T00:53:34.583Z,10.33
2018-11-28T00:58:10.973Z,9.63
2018-11-28T01:02:48.151Z,9.47
2018-11-28T01:07:24.522Z,9.90
2018-11-28T01:12:00.898Z,8.83
2018-11-28T01:16:37.301Z,9.67
2018-11-28T01:21:13.677Z,9.57
2018-11-28T01:25:50.061Z,10.80
2018-11-28T01:30:26.434Z,9.43
2018-11-28T01:35:02.840Z,10.40
2018-11-28T01:39:39.237Z,10.73
2018-11-28T01:44:15.637Z,10.97
2018-11-28T01:48:52.009Z,9.63
2018-11-28T01:53:28.389Z,8.90
2018-11-28T01:58:04.745Z,8.57
2018-11-28T02:02:41.636Z,6.97
2018-11-28T02:07:18.007Z,7.30
2018-11-28T02:11:54.416Z,7.50
2018-11-28T02:16:30.778Z,7.63
2018-11-28T02:21:07.627Z,6.93
2018-11-28T02:25:44.091Z,6.77
2018-11-28T02:30:21.341Z,6.33
2018-11-28T02:34:57.703Z,5.70
2018-11-28T02:39:34.084Z,6.30
2018-11-28T02:44:10.450Z,5.30
2018-11-28T02:48:46.834Z,5.43
2018-11-28T02:53:23.194Z,4.90
2018-11-28T02:57:59.575Z,5.67
2018-11-28T03:02:36.081Z,7.27
2018-11-28T03:07:12.462Z,6.93
2018-11-28T03:11:48.826Z,7.33
2018-11-28T03:16:25.210Z,7.00
2018-11-28T03:21:01.574Z,7.73
2018-11-28T03:25:37.973Z,6.30
2018-11-28T03:30:15.779Z,6.50
2018-11-28T03:34:52.242Z,6.77
2018-11-28T03:39:28.605Z,6.60
2018-11-28T03:44:05.005Z,6.77
2018-11-28T03:48:41.381Z,10.87
2018-11-28T03:53:17.771Z,12.80
2018-11-28T03:57:54.144Z,7.77
2018-11-28T04:02:30.600Z,8.10
2018-11-28T04:07:07.074Z,6.60
2018-11-28T04:11:43.467Z,7.00
2018-11-28T04:16:19.831Z,7.43
2018-11-28T04:20:56.218Z,6.90
2018-11-28T04:25:32.578Z,7.00
2018-11-28T04:30:18.883Z,6.27
2018-11-28T04:34:55.234Z,6.40
2018-11-28T04:39:31.647Z,5.03
2018-11-28T04:44:08.022Z,4.80
2018-11-28T04:48:44.466Z,5.77
2018-11-28T04:53:20.826Z,6.43
2018-11-28T04:57:57.208Z,5.77
2018-11-28T05:02:33.558Z,6.17
2018-11-28T05:07:32.094Z,6.23
2018-11-28T05:12:08.460Z,6.60
2018-11-28T05:16:44.935Z,5.40
2018-11-28T05:21:21.300Z,6.83
2018-11-28T05:25:57.685Z,7.30
2018-11-28T05:30:35.686Z,6.57
2018-11-28T05:35:13.601Z,8.10
2018-11-28T05:39:50.009Z,8.47
2018-11-28T05:44:26.402Z,7.83
2018-11-28T05:49:02.762Z,8.20
2018-11-28T05:53:39.295Z,7.67
2018-11-28T05:58:15.759Z,8.13
2018-11-28T06:02:52.145Z,10.03
2018-11-28T06:07:28.512Z,8.83
2018-11-28T06:12:04.917Z,7.20
2018-11-28T06:16:41.286Z,8.40
2018-11-28T06:21:17.671Z,8.43
2018-11-28T06:25:54.043Z,7.63
2018-11-28T06:30:30.432Z,8.43
2018-11-28T06:35:08.013Z,7.60
2018-11-28T06:39:44.401Z,8.10
2018-11-28T06:44:20.766Z,7.17
2018-11-28T06:48:57.161Z,15.03
2018-11-28T06:53:33.530Z,15.07
2018-11-28T06:58:09.930Z,8.60
2018-11-28T07:02:46.688Z,6.93
2018-11-28T07:07:23.065Z,7.90
2018-11-28T07:11:59.429Z,8.30
2018-11-28T07:16:35.825Z,7.23
2018-11-28T07:21:12.422Z,6.57
2018-11-28T07:25:48.806Z,9.10
2018-11-28T07:30:25.192Z,7.03
2018-11-28T07:35:01.566Z,5.80
2018-11-28T07:39:37.975Z,12.93
2018-11-28T07:44:14.423Z,8.00
2018-11-28T07:48:50.781Z,9.87
2018-11-28T07:53:27.161Z,7.23
2018-11-28T07:58:03.520Z,6.10
2018-11-28T08:02:40.342Z,9.60
2018-11-28T08:07:16.725Z,4.73
2018-11-28T08:11:53.129Z,6.93
2018-11-28T08:16:29.482Z,7.47
2018-11-28T08:21:06.698Z,6.43
2018-11-28T08:25:43.058Z,7.30
2018-11-28T08:30:26.638Z,6.43
2018-11-28T08:35:03.014Z,4.80
2018-11-28T08:39:39.399Z,6.03
2018-11-28T08:44:15.794Z,8.03
2018-11-28T08:48:52.185Z,6.00
2018-11-28T08:53:28.633Z,7.10
2018-11-28T08:58:05.061Z,8.23
2018-11-28T09:02:41.458Z,5.00
2018-11-28T09:07:17.851Z,7.17
2018-11-28T09:11:54.220Z,5.87
2018-11-28T09:16:30.893Z,5.43
2018-11-28T09:21:07.792Z,5.33
2018-11-28T09:25:45.162Z,4.43
2018-11-28T09:30:22.189Z,5.63
2018-11-28T09:34:58.586Z,5.83
2018-11-28T09:39:34.959Z,4.70
2018-11-28T09:44:11.342Z,4.20
2018-11-28T09:48:47.716Z,4.30
2018-11-28T09:53:24.092Z,4.27
2018-11-28T09:58:00.880Z,4.63
2018-11-28T10:02:37.266Z,6.00
2018-11-28T10:07:13.626Z,5.30
2018-11-28T10:11:50.006Z,4.60
2018-11-28T10:16:26.372Z,3.03
2018-11-28T10:21:02.837Z,3.70
2018-11-28T10:25:39.194Z,4.10
2018-11-28T10:30:26.092Z,3.50
2018-11-28T10:35:02.454Z,4.30
2018-11-28T10:39:38.888Z,4.23
2018-11-28T10:44:15.295Z,3.80
2018-11-28T10:48:51.685Z,4.13
2018-11-28T10:53:28.232Z,4.33
2018-11-28T10:58:04.605Z,4.20
2018-11-28T11:02:58.277Z,3.93
2018-11-28T11:07:51.685Z,3.40
2018-11-28T11:12:45.182Z,3.57
2018-11-28T11:17:21.571Z,2.70
2018-11-28T11:21:57.934Z,3.83
2018-11-28T11:26:34.321Z,3.80
2018-11-28T11:31:10.913Z,4.00
2018-11-28T11:35:47.383Z,3.27
2018-11-28T11:40:23.754Z,3.67
2018-11-28T11:45:00.544Z,3.80
2018-11-28T11:49:36.982Z,3.17
2018-11-28T11:54:13.378Z,2.70
2018-11-28T11:58:49.739Z,3.90
2018-11-28T12:03:26.326Z,3.80
2018-11-28T12:08:02.698Z,3.73
2018-11-28T12:12:39.081Z,3.83
2018-11-28T12:17:15.437Z,3.73
2018-11-28T12:21:51.810Z,3.77
2018-11-28T12:26:28.182Z,3.27
2018-11-28T12:31:04.567Z,3.70
2018-11-28T12:35:40.913Z,2.97
2018-11-28T12:40:18.184Z,3.63
2018-11-28T12:44:54.576Z,3.20
2018-11-28T12:49:30.943Z,3.23
2018-11-28T12:54:07.302Z,3.00
2018-11-28T12:58:43.710Z,2.97
2018-11-28T13:03:20.757Z,3.35
2018-11-28T13:07:57.169Z,3.30
2018-11-28T13:12:33.534Z,3.17
2018-11-28T13:17:10.552Z,2.90
2018-11-28T13:21:46.926Z,3.42
2018-11-28T13:26:23.377Z,3.60
2018-11-28T13:30:59.737Z,3.40
2018-11-28T13:35:36.130Z,3.60
2018-11-28T13:40:16.583Z,3.50
2018-11-28T13:44:53.035Z,3.08
2018-11-28T13:49:29.414Z,3.33
2018-11-28T13:54:20.943Z,4.00
2018-11-28T13:58:43.067Z,3.55
2018-11-28T14:03:19.447Z,2.70
2018-11-28T14:07:55.814Z,3.00
2018-11-28T14:12:32.201Z,3.72
2018-11-28T14:17:08.565Z,4.08
2018-11-28T14:21:44.957Z,3.33
2018-11-28T14:26:21.364Z,3.33
2018-11-28T14:30:57.776Z,3.05
2018-11-28T14:35:34.593Z,3.45
2018-11-28T14:40:21.321Z,3.35
2018-11-28T14:44:58.130Z,3.77
2018-11-28T14:49:34.608Z,3.05
2018-11-28T14:54:10.970Z,3.23
2018-11-28T14:58:47.370Z,3.08
2018-11-28T15:03:23.731Z,2.70
2018-11-28T15:08:06.183Z,3.47
2018-11-28T15:12:42.581Z,3.50
2018-11-28T15:17:18.966Z,6.60
2018-11-28T15:21:55.331Z,5.77
2018-11-28T15:26:31.730Z,5.17
2018-11-28T15:31:08.397Z,6.30
2018-11-28T15:35:44.806Z,8.30
2018-11-28T15:40:21.175Z,7.30
2018-11-28T15:44:57.557Z,3.93
2018-11-28T15:49:33.947Z,4.30
2018-11-28T15:54:10.337Z,6.07
2018-11-28T15:58:46.707Z,6.60
2018-11-28T16:03:24.144Z,5.83
2018-11-28T16:08:00.498Z,4.83
2018-11-28T16:12:36.964Z,6.77
2018-11-28T16:17:13.326Z,5.13
2018-11-28T16:21:49.719Z,5.53
2018-11-28T16:26:26.089Z,6.37
2018-11-28T16:31:02.626Z,7.20
2018-11-28T16:35:39.616Z,7.90
2018-11-28T16:40:16.906Z,6.73
2018-11-28T16:44:53.318Z,10.10
2018-11-28T16:49:29.697Z,17.30
2018-11-28T16:54:06.688Z,11.93
2018-11-28T16:58:43.090Z,8.33
2018-11-28T17:03:19.453Z,8.20
2018-11-28T17:07:56.266Z,8.00
2018-11-28T17:12:32.641Z,7.93
2018-11-28T17:17:09.025Z,8.87
2018-11-28T17:21:45.395Z,6.87
2018-11-28T17:26:21.769Z,6.37
2018-11-28T17:30:58.970Z,7.70
2018-11-28T17:35:35.373Z,7.53
2018-11-28T17:40:19.851Z,4.47
2018-11-28T17:44:56.346Z,5.93
2018-11-28T17:49:32.777Z,6.87
2018-11-28T17:54:09.291Z,12.00
2018-11-28T17:58:45.695Z,9.93
2018-11-28T18:03:22.885Z,11.73
2018-11-28T18:07:59.365Z,9.27
2018-11-28T18:12:35.774Z,11.17
2018-11-28T18:17:12.157Z,11.43
2018-11-28T18:21:50.345Z,9.17
2018-11-28T18:26:26.714Z,9.33
2018-11-28T18:31:03.146Z,6.40
2018-11-28T18:35:39.560Z,7.07
2018-11-28T18:40:16.006Z,5.97
2018-11-28T18:44:52.374Z,6.80
2018-11-28T18:49:28.780Z,5.83
2018-11-28T18:54:05.136Z,4.77
2018-11-28T18:58:41.535Z,5.67
2018-11-28T19:03:17.901Z,5.07
2018-11-28T19:07:54.290Z,5.73
2018-11-28T19:12:31.287Z,5.40
2018-11-28T19:17:08.006Z,4.97
2018-11-28T19:21:53.690Z,4.83
2018-11-28T19:26:30.118Z,6.43
2018-11-28T19:31:06.886Z,5.70
2018-11-28T19:35:43.530Z,4.00
2018-11-28T19:40:43.266Z,3.53
2018-11-28T19:45:19.674Z,4.70
2018-11-28T19:49:56.096Z,4.63
2018-11-28T19:54:32.712Z,5.60
2018-11-28T19:59:09.156Z,4.10
2018-11-28T20:03:45.559Z,3.20
2018-11-28T20:08:22.040Z,3.00
2018-11-28T20:12:58.814Z,3.17
2018-11-28T20:17:35.161Z,3.37
2018-11-28T20:22:11.546Z,2.27
2018-11-28T20:26:47.916Z,4.73
2018-11-28T20:31:24.347Z,6.30
2018-11-28T20:36:00.713Z,4.23
2018-11-28T20:40:37.748Z,5.17
2018-11-28T20:45:14.441Z,4.47
2018-11-28T20:49:52.862Z,3.80
2018-11-28T20:54:29.226Z,3.40
2018-11-28T20:59:06.274Z,3.70
2018-11-28T21:03:42.633Z,2.70
2018-11-28T21:13:04.539Z,13.57
2018-11-28T21:22:19.670Z,9.63
2018-11-28T21:26:56.975Z,11.10
2018-11-28T21:31:33.666Z,3.43
2018-11-28T21:36:10.095Z,2.63
2018-11-28T21:40:46.822Z,2.77
2018-11-28T21:45:24.099Z,3.23
2018-11-28T21:50:00.738Z,2.47
2018-11-28T21:54:42.366Z,3.40
2018-11-28T21:59:21.295Z,3.03
2018-11-28T22:04:00.636Z,3.03
2018-11-28T22:08:37.021Z,1.97
2018-11-28T22:13:13.378Z,2.70
2018-11-28T22:17:54.193Z,2.37
2018-11-28T22:22:30.569Z,1.83
2018-11-28T22:27:07.373Z,4.50
2018-11-28T22:31:43.737Z,5.12
2018-11-28T22:36:20.118Z,1.80
2018-11-28T22:40:56.626Z,1.60
2018-11-28T22:45:36.561Z,1.97
2018-11-28T22:50:13.874Z,2.47
2018-11-28T22:54:50.310Z,2.37
2018-11-28T22:59:26.667Z,1.80
2018-11-28T23:04:03.053Z,1.87
2018-11-28T23:08:39.406Z,2.23
2018-11-28T23:13:34.713Z,1.90
2018-11-28T23:18:12.177Z,1.60
2018-11-28T23:22:48.566Z,1.50
2018-11-28T23:27:25.003Z,1.40
2018-11-28T23:32:01.382Z,1.35
2018-11-28T23:36:37.747Z,1.53
2018-11-28T23:41:14.139Z,1.53
2018-11-28T23:45:51.492Z,1.03
2018-11-28T23:50:28.196Z,1.13
2018-11-28T23:55:04.954Z,1.33
2018-11-28T23:59:41.329Z,1.50
